M I D A S
Marine Information and Data Acquisition System
Tripno 1888 of the Zeeleeuw from 2010-05-27 06:36:30 to 2010-05-27 13:59:45
Back to CruiseResearch ActivitiesStationsMapUnderway DataData graphs

EquipmentUnitsComments
TimeDGPSUTC
LatitudeDGPSDM.mWGS84
LongitudeDGPSDM.mWGS84
SpeedMeteo Stationm/sRelative wind speed
DirectionMeteo StationdegRelative wind direction
TemperatureMeteo Stationdeg CelciusAir temperature
PressureMeteo StationPaAtmospheric pressure
HumidityMeteo Station%Relative humidity
Missing or incorrect values are displayed as -999
Metereological data collected by the RV Zeeleeuw from 2010-05-27 06:23:34 to 2010-05-27 13:57:33
Time Latitude Longitude Speed Direction Temperature Pressure Humidity
2010-05-27 06:24 51°13.674 2°55.887 0.4 21 12.8 100930 36
2010-05-27 06:25 51°13.687 2°55.792 -999 259 12.8 100930 36
2010-05-27 06:26 51°13.688 2°55.74 0.1 23 12.9 100930 36
2010-05-27 06:27 51°13.691 2°55.734 2.1 327 12.9 100930 37
2010-05-27 06:28 51°13.719 2°55.734 1.9 359 12.7 100930 37
2010-05-27 06:29 51°13.779 2°55.686 3.7 348 12.4 100920 36
2010-05-27 06:30 51°13.867 2°55.616 4.5 355 12.1 100920 35
2010-05-27 06:31 51°13.972 2°55.54 4 346 11.8 100920 36
2010-05-27 06:32 51°14.113 2°55.457 5 342 11.8 100920 36
2010-05-27 06:33 51°14.248 2°55.33 5.3 348 11.7 100920 37
2010-05-27 06:34 51°14.376 2°55.178 4.9 349 11.6 100930 37
2010-05-27 06:35 51°14.516 2°55 5.3 353 11.5 100930 37
2010-05-27 06:36 51°14.665 2°54.794 5.4 345 11.4 100930 36
2010-05-27 06:37 51°14.82 2°54.579 5.4 344 11.4 100930 36
2010-05-27 06:38 51°14.993 2°54.389 6.1 341 11.4 100940 36
2010-05-27 06:39 51°15.177 2°54.224 6.3 339 11.4 100940 35
2010-05-27 06:40 51°15.357 2°54.029 6.8 341 11.5 100940 37
2010-05-27 06:41 51°15.531 2°53.818 6.9 340 11.5 100940 35
2010-05-27 06:42 51°15.705 2°53.608 6.7 341 11.5 100940 36
2010-05-27 06:43 51°15.88 2°53.411 6.7 340 11.6 100930 35
2010-05-27 06:44 51°16.065 2°53.225 7.8 339 11.6 100940 37
2010-05-27 06:45 51°16.251 2°53.062 7.2 340 11.6 100940 37
2010-05-27 06:46 51°16.44 2°52.914 7.4 338 11.6 100940 36
2010-05-27 06:47 51°16.629 2°52.771 7.5 341 11.6 100940 37
2010-05-27 06:48 51°16.815 2°52.629 6.6 342 11.6 100950 37
2010-05-27 06:49 51°16.997 2°52.486 7 337 11.6 100950 37
2010-05-27 06:50 51°17.18 2°52.338 7.5 338 11.6 100950 36
2010-05-27 06:51 51°17.358 2°52.17 7 343 11.6 100950 38
2010-05-27 06:52 51°17.469 2°51.876 7.5 344 11.5 100950 37
2010-05-27 06:53 51°17.573 2°51.571 7.3 344 11.4 100950 38
2010-05-27 06:54 51°17.677 2°51.266 7 344 11.3 100950 37
2010-05-27 06:55 51°17.77 2°50.99 5.5 349 11.3 100950 37
2010-05-27 06:56 51°17.747 2°50.815 1.3 31 11.3 100960 38
2010-05-27 06:57 51°17.662 2°50.776 2.9 258 11.4 100960 38
2010-05-27 06:58 51°17.618 2°50.837 3.8 22 11.5 100960 38
2010-05-27 06:59 51°17.605 2°50.863 3 318 11.5 100960 36
2010-05-27 07:00 51°17.591 2°50.858 2.9 319 11.6 100970 36
2010-05-27 07:01 51°17.577 2°50.848 3.6 324 11.6 100960 37
2010-05-27 07:02 51°17.577 2°50.846 3.9 324 11.7 100970 36
2010-05-27 07:03 51°17.578 2°50.841 3.2 330 11.6 100970 36
2010-05-27 07:04 51°17.579 2°50.839 3.6 326 11.6 100970 36
2010-05-27 07:05 51°17.578 2°50.84 2.3 319 11.6 100970 36
2010-05-27 07:06 51°17.577 2°50.843 4 327 11.7 100970 38
2010-05-27 07:07 51°17.577 2°50.842 3.3 327 11.6 100980 36
2010-05-27 07:08 51°17.578 2°50.84 4.2 328 11.6 100980 36
2010-05-27 07:09 51°17.578 2°50.84 4 320 11.6 100970 36
2010-05-27 07:10 51°17.579 2°50.84 3.5 317 11.6 100980 38
2010-05-27 07:11 51°17.578 2°50.841 3.8 328 11.6 100980 38
2010-05-27 07:12 51°17.578 2°50.84 4.3 329 11.6 100980 36
2010-05-27 07:13 51°17.579 2°50.84 3.3 333 11.5 100980 37
2010-05-27 07:14 51°17.579 2°50.84 3.7 326 11.6 100970 36
2010-05-27 07:15 51°17.579 2°50.839 5.1 326 11.7 100970 36
2010-05-27 07:16 51°17.578 2°50.841 4 330 11.7 100970 38
2010-05-27 07:17 51°17.579 2°50.84 3.1 334 11.6 100970 37
2010-05-27 07:18 51°17.58 2°50.839 3.6 329 11.6 100970 37
2010-05-27 07:19 51°17.58 2°50.838 4 326 11.6 100970 38
2010-05-27 07:20 51°17.578 2°50.84 4.6 324 11.6 100970 36
2010-05-27 07:21 51°17.577 2°50.842 4.2 322 11.6 100970 36
2010-05-27 07:22 51°17.577 2°50.842 2.6 324 11.6 100970 37
2010-05-27 07:23 51°17.577 2°50.843 4.1 321 11.6 100970 37
2010-05-27 07:24 51°17.577 2°50.842 3.6 322 11.6 100970 38
2010-05-27 07:25 51°17.578 2°50.842 4.2 324 11.6 100970 37
2010-05-27 07:26 51°17.578 2°50.841 4.5 332 11.6 100980 38
2010-05-27 07:27 51°17.578 2°50.841 4.1 328 11.6 100980 39
2010-05-27 07:28 51°17.578 2°50.84 3.6 329 11.5 100980 38
2010-05-27 07:29 51°17.578 2°50.84 3.8 330 11.4 100980 36
2010-05-27 07:30 51°17.579 2°50.839 3.3 329 11.5 100980 36
2010-05-27 07:31 51°17.579 2°50.84 3.2 332 11.4 100980 37
2010-05-27 07:32 51°17.579 2°50.84 3.7 334 11.4 100980 36
2010-05-27 07:33 51°17.579 2°50.839 3.1 338 11.4 100980 38
2010-05-27 07:34 51°17.58 2°50.84 3 334 11.4 100980 36
2010-05-27 07:35 51°17.58 2°50.84 3.1 339 11.4 100970 37
2010-05-27 07:36 51°17.579 2°50.841 4.3 339 11.4 100970 37
2010-05-27 07:37 51°17.58 2°50.839 3.8 335 11.4 100970 36
2010-05-27 07:38 51°17.58 2°50.839 3.5 334 11.4 100960 38
2010-05-27 07:39 51°17.579 2°50.839 4.7 340 11.4 100960 36
2010-05-27 07:40 51°17.577 2°50.84 3.8 335 11.4 100960 38
2010-05-27 07:41 51°17.578 2°50.84 3.6 342 11.4 100960 38
2010-05-27 07:42 51°17.577 2°50.839 3.9 337 11.4 100960 38
2010-05-27 07:43 51°17.578 2°50.84 3.6 341 11.3 100970 37
2010-05-27 07:44 51°17.577 2°50.839 3.3 341 11.3 100970 38
2010-05-27 07:45 51°17.578 2°50.839 3.5 348 11.4 100970 36
2010-05-27 07:46 51°17.578 2°50.838 3.8 345 11.3 100970 36
2010-05-27 07:47 51°17.579 2°50.838 4.2 343 11.3 100970 36
2010-05-27 07:48 51°17.578 2°50.837 3.3 346 11.3 100970 38
2010-05-27 07:49 51°17.578 2°50.838 4.2 345 11.3 100970 38
2010-05-27 07:50 51°17.577 2°50.838 3.9 343 11.3 100970 36
2010-05-27 07:51 51°17.578 2°50.84 3.2 344 11.2 100960 37
2010-05-27 07:52 51°17.577 2°50.84 4 345 11.3 100960 36
2010-05-27 07:53 51°17.577 2°50.841 3.6 346 11.3 100960 36
2010-05-27 07:54 51°17.577 2°50.841 3.7 345 11.3 100960 36
2010-05-27 07:55 51°17.577 2°50.839 3.5 348 11.3 100960 38
2010-05-27 07:56 51°17.578 2°50.84 3.6 342 11.3 100960 38
2010-05-27 07:57 51°17.577 2°50.841 3.7 339 11.3 100960 37
2010-05-27 07:58 51°17.577 2°50.841 3.8 347 11.4 100950 36
2010-05-27 07:59 51°17.577 2°50.84 3.9 346 11.3 100950 35
2010-05-27 08:00 51°17.578 2°50.839 3.6 348 11.3 100950 38
2010-05-27 08:01 51°17.578 2°50.839 3.9 339 11.3 100950 36
2010-05-27 08:02 51°17.577 2°50.838 3.8 349 11.3 100950 36
2010-05-27 08:03 51°17.577 2°50.84 3.3 344 11.3 100960 37
2010-05-27 08:04 51°17.577 2°50.842 3.6 345 11.3 100950 36
2010-05-27 08:06 51°17.576 2°50.841 3.4 343 11.3 100960 36
2010-05-27 08:08 51°17.577 2°50.84 3.4 354 11.3 100960 37
2010-05-27 08:09 51°17.578 2°50.839 2.8 355 11.3 100950 36
2010-05-27 08:10 51°17.578 2°50.838 3 354 11.3 100950 34
2010-05-27 08:11 51°17.578 2°50.84 3.4 346 11.3 100950 36
2010-05-27 08:12 51°17.577 2°50.842 2.8 344 11.3 100950 38
2010-05-27 08:13 51°17.576 2°50.844 2.9 346 11.3 100960 35
2010-05-27 08:14 51°17.576 2°50.845 3.2 355 11.3 100950 36
2010-05-27 08:15 51°17.577 2°50.842 3.4 354 11.3 100950 36
2010-05-27 08:16 51°17.578 2°50.84 4.1 353 11.3 100950 35
2010-05-27 08:17 51°17.579 2°50.838 3.6 356 11.3 100940 38
2010-05-27 08:18 51°17.578 2°50.838 3.7 352 11.3 100940 34
2010-05-27 08:19 51°17.577 2°50.841 3.3 346 11.3 100940 36
2010-05-27 08:20 51°17.577 2°50.843 2.7 348 11.3 100940 35
2010-05-27 08:21 51°17.577 2°50.843 3.3 347 11.3 100940 35
2010-05-27 08:22 51°17.577 2°50.842 3.4 351 11.4 100930 37
2010-05-27 08:23 51°17.578 2°50.841 3.8 350 11.3 100930 37
2010-05-27 08:24 51°17.578 2°50.841 3.2 346 11.3 100930 37
2010-05-27 08:25 51°17.577 2°50.843 2.2 345 11.3 100940 35
2010-05-27 08:26 51°17.576 2°50.845 2.9 347 11.4 100930 36
2010-05-27 08:27 51°17.577 2°50.845 3.8 358 11.4 100940 37
2010-05-27 08:28 51°17.577 2°50.843 3.1 360 11.4 100930 35
2010-05-27 08:29 51°17.578 2°50.841 2.3 349 11.5 100940 37
2010-05-27 08:30 51°17.577 2°50.843 3.4 344 11.5 100940 36
2010-05-27 08:31 51°17.576 2°50.845 3.2 341 11.4 100940 35
2010-05-27 08:32 51°17.576 2°50.846 2.8 345 11.5 100940 37
2010-05-27 08:33 51°17.576 2°50.846 3 352 11.4 100940 35
2010-05-27 08:34 51°17.576 2°50.844 3.4 358 11.5 100940 36
2010-05-27 08:35 51°17.578 2°50.842 2.8 360 11.4 100950 35
2010-05-27 08:36 51°17.578 2°50.842 2.8 349 11.4 100940 35
2010-05-27 08:37 51°17.577 2°50.842 2.3 344 11.5 100940 37
2010-05-27 08:38 51°17.577 2°50.844 2.8 341 11.4 100940 37
2010-05-27 08:39 51°17.577 2°50.847 1.8 344 11.4 100940 37
2010-05-27 08:40 51°17.576 2°50.848 2 347 11.5 100940 35
2010-05-27 08:41 51°17.577 2°50.845 3.1 349 11.5 100940 37
2010-05-27 08:42 51°17.578 2°50.843 3.2 355 11.5 100940 36
2010-05-27 08:43 51°17.579 2°50.842 2.8 346 11.5 100940 37
2010-05-27 08:44 51°17.578 2°50.842 2.8 342 11.4 100940 37
2010-05-27 08:45 51°17.577 2°50.845 3.5 349 11.4 100940 36
2010-05-27 08:46 51°17.577 2°50.847 2.7 350 11.4 100940 35
2010-05-27 08:47 51°17.576 2°50.848 2.7 359 11.4 100940 37
2010-05-27 08:48 51°17.576 2°50.845 3.1 355 11.4 100940 36
2010-05-27 08:49 51°17.578 2°50.844 2.9 357 11.4 100950 37
2010-05-27 08:50 51°17.578 2°50.842 2.2 357 11.4 100940 37
2010-05-27 08:51 51°17.577 2°50.842 2.9 355 11.4 100940 35
2010-05-27 08:52 51°17.577 2°50.846 3.4 347 11.3 100950 36
2010-05-27 08:53 51°17.577 2°50.848 2.2 340 11.4 100940 35
2010-05-27 08:54 51°17.576 2°50.849 1.9 337 11.4 100940 38
2010-05-27 08:55 51°17.575 2°50.849 2.8 346 11.4 100940 37
2010-05-27 08:56 51°17.576 2°50.848 2.5 345 11.4 100940 35
2010-05-27 08:57 51°17.577 2°50.846 2.8 349 11.4 100940 35
2010-05-27 08:58 51°17.577 2°50.845 2.9 350 11.4 100940 35
2010-05-27 08:59 51°17.577 2°50.844 3.2 351 11.4 100930 35
2010-05-27 09:00 51°17.577 2°50.845 2.3 352 11.4 100930 37
2010-05-27 09:01 51°17.576 2°50.847 2.8 347 11.4 100930 35
2010-05-27 09:02 51°17.576 2°50.85 2.9 341 11.4 100930 37
2010-05-27 09:03 51°17.576 2°50.85 3.3 346 11.4 100930 35
2010-05-27 09:04 51°17.576 2°50.849 1.9 351 11.4 100930 35
2010-05-27 09:05 51°17.577 2°50.848 2.7 354 11.4 100940 35
2010-05-27 09:06 51°17.577 2°50.847 2 358 11.3 100940 35
2010-05-27 09:07 51°17.576 2°50.848 1.7 353 11.3 100940 35
2010-05-27 09:08 51°17.576 2°50.85 2.1 360 11.5 100950 35
2010-05-27 09:09 51°17.577 2°50.851 2.5 355 11.5 100950 37
2010-05-27 09:10 51°17.576 2°50.851 2.8 358 11.5 100940 36
2010-05-27 09:11 51°17.575 2°50.849 2 1 11.4 100950 35
2010-05-27 09:12 51°17.577 2°50.849 2.5 355 11.4 100940 35
2010-05-27 09:13 51°17.578 2°50.849 2.3 356 11.4 100950 35
2010-05-27 09:14 51°17.577 2°50.849 2.1 356 11.4 100950 35
2010-05-27 09:15 51°17.576 2°50.849 2 353 11.4 100950 37
2010-05-27 09:16 51°17.576 2°50.85 2.3 351 11.5 100950 35
2010-05-27 09:17 51°17.576 2°50.852 1.9 356 11.5 100950 35
2010-05-27 09:18 51°17.575 2°50.853 2.8 350 11.4 100950 37
2010-05-27 09:19 51°17.575 2°50.853 2.5 353 11.4 100940 36
2010-05-27 09:20 51°17.576 2°50.852 3 356 11.4 100940 35
2010-05-27 09:21 51°17.576 2°50.852 2.9 357 11.4 100940 35
2010-05-27 09:22 51°17.575 2°50.852 3.1 -999 11.4 100940 37
2010-05-27 09:23 51°17.575 2°50.853 2.1 356 11.4 100940 37
2010-05-27 09:24 51°17.576 2°50.854 2.4 355 11.4 100950 36
2010-05-27 09:25 51°17.575 2°50.855 1.7 359 11.4 100940 35
2010-05-27 09:26 51°17.575 2°50.856 1.5 355 11.4 100930 37
2010-05-27 09:27 51°17.575 2°50.857 2 2 11.4 100940 37
2010-05-27 09:28 51°17.575 2°50.856 2.1 355 11.4 100930 35
2010-05-27 09:29 51°17.575 2°50.855 2.1 356 11.4 100930 35
2010-05-27 09:30 51°17.576 2°50.854 2.1 355 11.4 100930 36
2010-05-27 09:31 51°17.576 2°50.854 2 358 11.4 100940 35
2010-05-27 09:32 51°17.576 2°50.855 2.3 351 11.4 100940 37
2010-05-27 09:33 51°17.576 2°50.856 2.4 354 11.4 100930 37
2010-05-27 09:34 51°17.575 2°50.857 2.5 356 11.5 100930 35
2010-05-27 09:35 51°17.576 2°50.858 1.9 352 11.4 100930 37
2010-05-27 09:36 51°17.576 2°50.859 2.6 357 11.4 100930 37
2010-05-27 09:37 51°17.575 2°50.859 2.2 2 11.4 100940 35
2010-05-27 09:38 51°17.575 2°50.859 1.9 1 11.4 100940 35
2010-05-27 09:39 51°17.575 2°50.859 3 -999 11.5 100930 37
2010-05-27 09:40 51°17.575 2°50.859 2.5 3 11.4 100930 35
2010-05-27 09:41 51°17.575 2°50.86 2.7 356 11.4 100930 35
2010-05-27 09:42 51°17.575 2°50.861 1.9 3 11.5 100930 35
2010-05-27 09:43 51°17.576 2°50.863 2.4 5 11.4 100930 35
2010-05-27 09:44 51°17.577 2°50.866 2.5 4 11.4 100940 37
2010-05-27 09:45 51°17.577 2°50.868 2.2 8 11.4 100930 37
2010-05-27 09:46 51°17.577 2°50.87 1.9 1 11.5 100940 36
2010-05-27 09:47 51°17.578 2°50.872 3 6 11.5 100940 35
2010-05-27 09:48 51°17.579 2°50.874 2.6 9 11.5 100930 37
2010-05-27 09:49 51°17.58 2°50.875 2.1 13 11.5 100940 35
2010-05-27 09:50 51°17.581 2°50.876 2.1 18 11.5 100940 35
2010-05-27 09:51 51°17.581 2°50.876 2.2 13 11.5 100940 37
2010-05-27 09:52 51°17.58 2°50.876 1.9 16 11.6 100940 37
2010-05-27 09:53 51°17.579 2°50.876 2 15 11.6 100940 37
2010-05-27 09:54 51°17.578 2°50.874 1.5 21 11.6 100940 36
2010-05-27 09:55 51°17.579 2°50.873 1.9 17 11.6 100940 37
2010-05-27 09:56 51°17.579 2°50.872 1.9 12 11.6 100950 37
2010-05-27 09:57 51°17.579 2°50.872 1.8 17 11.7 100940 37
2010-05-27 09:58 51°17.579 2°50.873 2 23 11.7 100940 35
2010-05-27 09:59 51°17.579 2°50.875 1.9 13 11.7 100950 35
2010-05-27 10:00 51°17.58 2°50.877 1.8 12 11.7 100950 35
2010-05-27 10:01 51°17.581 2°50.878 1.7 19 11.6 100950 37
2010-05-27 10:02 51°17.582 2°50.88 1.6 18 11.6 100950 36
2010-05-27 10:03 51°17.584 2°50.882 1.8 13 11.7 100950 35
2010-05-27 10:04 51°17.587 2°50.885 1.6 16 11.7 100950 35
2010-05-27 10:05 51°17.59 2°50.888 1.7 19 11.7 100950 37
2010-05-27 10:06 51°17.594 2°50.891 1.4 22 11.6 100950 35
2010-05-27 10:07 51°17.596 2°50.893 1.6 18 11.7 100950 37
2010-05-27 10:08 51°17.598 2°50.894 1.8 26 11.7 100950 35
2010-05-27 10:09 51°17.598 2°50.893 1.7 26 11.8 100950 35
2010-05-27 10:10 51°17.598 2°50.894 2.3 33 11.7 100940 36
2010-05-27 10:11 51°17.598 2°50.895 2.2 30 11.7 100940 37
2010-05-27 10:12 51°17.598 2°50.895 1.8 31 11.7 100940 36
2010-05-27 10:14 51°17.598 2°50.895 1.8 36 11.7 100940 35
2010-05-27 10:16 51°17.6 2°50.895 2 30 11.7 100930 37
2010-05-27 10:17 51°17.601 2°50.894 2.2 28 11.7 100930 37
2010-05-27 10:18 51°17.602 2°50.892 1.4 36 11.7 100930 35
2010-05-27 10:19 51°17.604 2°50.891 1.5 33 11.7 100930 37
2010-05-27 10:20 51°17.604 2°50.89 1.9 28 11.7 100930 38
2010-05-27 10:21 51°17.605 2°50.89 -999 29 11.7 100930 36
2010-05-27 10:22 51°17.605 2°50.891 1.2 41 11.7 100940 37
2010-05-27 10:23 51°17.605 2°50.892 2.6 38 11.7 100940 37
2010-05-27 10:24 51°17.605 2°50.891 2.1 36 11.6 100930 35
2010-05-27 10:25 51°17.606 2°50.891 2.1 36 11.6 100930 35
2010-05-27 10:26 51°17.607 2°50.889 1.8 38 11.6 100930 37
2010-05-27 10:27 51°17.608 2°50.889 1.6 37 11.6 100920 37
2010-05-27 10:28 51°17.608 2°50.889 2 36 11.7 100920 37
2010-05-27 10:29 51°17.608 2°50.89 1.8 38 11.6 100930 35
2010-05-27 10:30 51°17.608 2°50.891 2.1 34 11.6 100930 35
2010-05-27 10:31 51°17.608 2°50.891 2 39 11.6 100930 35
2010-05-27 10:32 51°17.61 2°50.891 2 40 11.6 100930 35
2010-05-27 10:33 51°17.61 2°50.89 2.1 38 11.6 100930 35
2010-05-27 10:34 51°17.61 2°50.889 1.8 42 11.6 100920 35
2010-05-27 10:35 51°17.611 2°50.889 2.3 42 11.6 100930 36
2010-05-27 10:36 51°17.611 2°50.89 2.2 38 11.6 100930 35
2010-05-27 10:37 51°17.611 2°50.89 2.1 75 11.6 100920 35
2010-05-27 10:38 51°17.611 2°50.891 1.9 75 11.6 100920 35
2010-05-27 10:39 51°17.61 2°50.891 2 79 11.6 100920 35
2010-05-27 10:40 51°17.611 2°50.891 2 82 11.6 100920 35
2010-05-27 10:41 51°17.611 2°50.891 2.1 77 11.6 100920 37
2010-05-27 10:42 51°17.611 2°50.889 2.5 74 11.6 100920 36
2010-05-27 10:43 51°17.612 2°50.888 2 83 11.6 100920 37
2010-05-27 10:44 51°17.612 2°50.887 1.8 80 11.6 100920 35
2010-05-27 10:45 51°17.613 2°50.887 1.9 20 11.6 100920 35
2010-05-27 10:46 51°17.613 2°50.889 2.1 82 11.6 100920 35
2010-05-27 10:47 51°17.613 2°50.891 0.1 43 11.6 100920 35
2010-05-27 10:48 51°17.612 2°50.892 2.1 74 11.7 100920 35
2010-05-27 10:49 51°17.612 2°50.892 2 75 11.7 100920 35
2010-05-27 10:50 51°17.612 2°50.891 1.1 19 11.7 100920 37
2010-05-27 10:51 51°17.613 2°50.89 1.9 21 11.7 100920 35
2010-05-27 10:52 51°17.613 2°50.889 2.2 20 11.7 100920 37
2010-05-27 10:53 51°17.613 2°50.888 0.9 20 11.7 100920 35
2010-05-27 10:54 51°17.613 2°50.888 0.1 23 11.7 100910 37
2010-05-27 10:55 51°17.613 2°50.888 0.1 23 11.9 100920 35
2010-05-27 10:56 51°17.613 2°50.889 0.1 23 12.1 100910 36
2010-05-27 10:57 51°17.613 2°50.889 2.2 29 12.2 100910 37
2010-05-27 10:58 51°17.613 2°50.889 1.1 27 12.2 100900 37
2010-05-27 10:59 51°17.613 2°50.89 2.1 20 12.2 100910 35
2010-05-27 11:00 51°17.613 2°50.89 1.9 43 12.1 100910 35
2010-05-27 11:01 51°17.613 2°50.89 1.9 19 12 100910 37
2010-05-27 11:02 51°17.614 2°50.889 2.2 22 12 100910 35
2010-05-27 11:03 51°17.614 2°50.888 2 19 11.9 100910 35
2010-05-27 11:04 51°17.614 2°50.887 1.6 20 11.8 100920 37
2010-05-27 11:05 51°17.615 2°50.886 1.8 45 11.8 100930 35
2010-05-27 11:06 51°17.615 2°50.886 1.8 43 11.7 100930 35
2010-05-27 11:07 51°17.615 2°50.887 2.1 23 11.8 100930 36
2010-05-27 11:08 51°17.614 2°50.888 1.8 45 11.7 100920 35
2010-05-27 11:09 51°17.614 2°50.889 1.7 26 11.7 100920 35
2010-05-27 11:10 51°17.615 2°50.888 1.8 44 11.7 100930 35
2010-05-27 11:11 51°17.615 2°50.887 1.7 26 11.7 100920 37
2010-05-27 11:12 51°17.616 2°50.887 2.1 21 11.7 100920 37
2010-05-27 11:13 51°17.616 2°50.886 2.1 23 11.7 100920 35
2010-05-27 11:14 51°17.615 2°50.885 2 26 11.7 100910 36
2010-05-27 11:15 51°17.616 2°50.886 2.1 27 11.7 100920 37
2010-05-27 11:16 51°17.616 2°50.887 2.2 24 11.7 100920 37
2010-05-27 11:17 51°17.615 2°50.888 2 19 11.7 100920 37
2010-05-27 11:18 51°17.615 2°50.888 2 76 11.7 100920 37
2010-05-27 11:19 51°17.615 2°50.889 2 23 11.8 100920 35
2010-05-27 11:20 51°17.615 2°50.888 2.3 40 11.9 100920 37
2010-05-27 11:21 51°17.615 2°50.887 2.2 28 11.8 100920 37
2010-05-27 11:22 51°17.616 2°50.886 1.9 42 11.8 100910 35
2010-05-27 11:23 51°17.616 2°50.885 2 39 11.7 100920 37
2010-05-27 11:24 51°17.616 2°50.884 2.4 44 11.9 100920 38
2010-05-27 11:25 51°17.616 2°50.884 1.9 43 11.9 100910 37
2010-05-27 11:26 51°17.616 2°50.886 3 44 11.8 100910 36
2010-05-27 11:27 51°17.615 2°50.886 2.6 44 11.8 100910 35
2010-05-27 11:28 51°17.616 2°50.885 2.5 42 11.8 100910 36
2010-05-27 11:29 51°17.616 2°50.885 2.6 41 11.8 100910 36
2010-05-27 11:30 51°17.615 2°50.885 2.5 40 11.8 100910 35
2010-05-27 11:31 51°17.616 2°50.886 2.9 36 11.8 100910 38
2010-05-27 11:32 51°17.616 2°50.886 2.5 38 11.8 100920 35
2010-05-27 11:33 51°17.615 2°50.886 3 38 11.8 100910 35
2010-05-27 11:34 51°17.615 2°50.886 3 40 11.8 100910 35
2010-05-27 11:35 51°17.616 2°50.885 2.4 31 11.8 100910 38
2010-05-27 11:36 51°17.616 2°50.885 2.4 39 11.9 100910 36
2010-05-27 11:37 51°17.615 2°50.885 2.3 34 11.9 100910 37
2010-05-27 11:38 51°17.615 2°50.886 2.6 35 11.9 100910 37
2010-05-27 11:39 51°17.615 2°50.887 2.1 35 11.8 100920 36
2010-05-27 11:40 51°17.616 2°50.886 2.2 40 11.8 100920 35
2010-05-27 11:41 51°17.616 2°50.885 2.3 39 11.9 100920 37
2010-05-27 11:42 51°17.616 2°50.883 2 34 11.9 100930 38
2010-05-27 11:43 51°17.616 2°50.883 2.1 37 11.8 100930 36
2010-05-27 11:44 51°17.615 2°50.885 1.8 38 11.9 100930 37
2010-05-27 11:45 51°17.616 2°50.886 2.5 32 12 100940 35
2010-05-27 11:46 51°17.616 2°50.887 2 35 11.9 100940 38
2010-05-27 11:47 51°17.616 2°50.887 2.1 34 11.9 100940 35
2010-05-27 11:48 51°17.615 2°50.887 1.7 33 11.9 100930 37
2010-05-27 11:49 51°17.616 2°50.887 2.1 28 11.9 100940 35
2010-05-27 11:50 51°17.616 2°50.885 1.8 28 11.9 100940 38
2010-05-27 11:51 51°17.616 2°50.884 2 28 11.9 100940 38
2010-05-27 11:52 51°17.616 2°50.885 1.9 34 11.9 100940 38
2010-05-27 11:53 51°17.616 2°50.887 2.3 31 11.9 100940 37
2010-05-27 11:54 51°17.616 2°50.889 1.9 26 11.9 100940 37
2010-05-27 11:55 51°17.616 2°50.888 1.9 39 11.9 100940 36
2010-05-27 11:56 51°17.616 2°50.887 1.9 42 11.9 100940 37
2010-05-27 11:57 51°17.616 2°50.887 1.8 45 11.8 100940 38
2010-05-27 11:58 51°17.616 2°50.887 1.9 44 11.8 100930 35
2010-05-27 11:59 51°17.616 2°50.887 1.7 38 11.9 100930 35
2010-05-27 12:00 51°17.616 2°50.887 2 35 11.9 100930 35
2010-05-27 12:01 51°17.616 2°50.886 2.1 33 11.9 100930 35
2010-05-27 12:02 51°17.616 2°50.888 1.8 31 11.9 100930 36
2010-05-27 12:03 51°17.615 2°50.889 2.1 33 12 100930 36
2010-05-27 12:04 51°17.615 2°50.89 1.8 31 12 100930 36
2010-05-27 12:05 51°17.616 2°50.89 1.7 39 12 100930 35
2010-05-27 12:06 51°17.615 2°50.89 1.8 35 12 100930 35
2010-05-27 12:07 51°17.615 2°50.889 1.5 35 12 100930 36
2010-05-27 12:08 51°17.616 2°50.889 1.7 32 12 100930 35
2010-05-27 12:09 51°17.616 2°50.889 1.9 31 12 100930 35
2010-05-27 12:10 51°17.615 2°50.889 2.2 32 12 100930 35
2010-05-27 12:11 51°17.615 2°50.889 1.6 30 12 100930 35
2010-05-27 12:12 51°17.615 2°50.888 1.9 33 12.1 100930 37
2010-05-27 12:13 51°17.615 2°50.887 2.7 31 12.1 100930 38
2010-05-27 12:14 51°17.616 2°50.887 2.7 28 12.1 100940 38
2010-05-27 12:15 51°17.616 2°50.887 2.7 28 12 100940 35
2010-05-27 12:16 51°17.616 2°50.888 2.3 26 12 100940 35
2010-05-27 12:17 51°17.615 2°50.889 2.6 33 12 100930 37
2010-05-27 12:18 51°17.616 2°50.889 3.4 28 12 100940 38
2010-05-27 12:19 51°17.616 2°50.887 3.2 27 12 100940 38
2010-05-27 12:20 51°17.616 2°50.886 2.6 26 12 100940 36
2010-05-27 12:21 51°17.616 2°50.887 3 29 11.9 100940 36
2010-05-27 12:22 51°17.617 2°50.887 3.2 26 11.9 100940 36
2010-05-27 12:23 51°17.616 2°50.888 3.5 29 12 100940 36
2010-05-27 12:24 51°17.616 2°50.889 3.2 24 11.9 100940 38
2010-05-27 12:25 51°17.616 2°50.888 2.7 27 11.9 100940 36
2010-05-27 12:26 51°17.616 2°50.888 3.6 25 11.9 100940 36
2010-05-27 12:27 51°17.615 2°50.887 3.8 26 11.8 100940 37
2010-05-27 12:28 51°17.615 2°50.886 3.4 26 11.8 100940 35
2010-05-27 12:29 51°17.615 2°50.887 3.4 25 11.8 100940 36
2010-05-27 12:30 51°17.615 2°50.889 3.4 25 11.7 100930 35
2010-05-27 12:31 51°17.614 2°50.89 3.3 27 11.8 100940 35
2010-05-27 12:32 51°17.614 2°50.89 3.8 24 11.8 100930 35
2010-05-27 12:33 51°17.614 2°50.89 3.4 24 11.8 100930 35
2010-05-27 12:34 51°17.615 2°50.889 4 24 11.8 100930 36
2010-05-27 12:35 51°17.615 2°50.888 3.8 24 11.8 100920 36
2010-05-27 12:36 51°17.616 2°50.887 3.9 28 11.7 100920 35
2010-05-27 12:37 51°17.616 2°50.886 3.7 28 11.7 100920 35
2010-05-27 12:38 51°17.616 2°50.886 4 27 11.7 100930 35
2010-05-27 12:39 51°17.616 2°50.886 3.6 26 11.7 100930 37
2010-05-27 12:40 51°17.616 2°50.885 3.7 27 11.7 100940 38
2010-05-27 12:41 51°17.616 2°50.885 3.7 24 11.7 100940 36
2010-05-27 12:42 51°17.616 2°50.885 3.5 22 11.7 100940 35
2010-05-27 12:43 51°17.617 2°50.885 3.7 18 11.8 100950 36
2010-05-27 12:44 51°17.616 2°50.886 3.5 20 11.7 100950 37
2010-05-27 12:45 51°17.616 2°50.887 3.4 27 11.7 100950 36
2010-05-27 12:46 51°17.616 2°50.888 3.1 18 11.7 100950 36
2010-05-27 12:47 51°17.616 2°50.887 3.2 25 11.7 100950 37
2010-05-27 12:48 51°17.616 2°50.886 3.6 25 11.6 100950 35
2010-05-27 12:49 51°17.616 2°50.885 3.1 28 11.6 100950 37
2010-05-27 12:50 51°17.616 2°50.885 3.1 27 11.6 100950 35
2010-05-27 12:51 51°17.616 2°50.886 3.4 26 11.7 100950 35
2010-05-27 12:52 51°17.617 2°50.886 3.4 25 11.6 100950 35
2010-05-27 12:53 51°17.617 2°50.886 3.8 27 11.6 100950 35
2010-05-27 12:54 51°17.617 2°50.884 3.2 29 11.6 100950 36
2010-05-27 12:55 51°17.616 2°50.884 3.7 28 11.6 100950 36
2010-05-27 12:56 51°17.617 2°50.883 3.3 29 11.6 100950 36
2010-05-27 12:57 51°17.617 2°50.885 4.1 27 11.6 100950 35
2010-05-27 12:58 51°17.617 2°50.885 3.5 25 11.6 100950 35
2010-05-27 12:59 51°17.616 2°50.886 3.3 24 11.6 100950 37
2010-05-27 13:00 51°17.616 2°50.886 3.6 28 11.6 100950 37
2010-05-27 13:01 51°17.616 2°50.886 3.2 30 11.5 100950 36
2010-05-27 13:02 51°17.616 2°50.886 3.6 30 11.5 100950 37
2010-05-27 13:03 51°17.617 2°50.885 2.8 32 11.5 100950 37
2010-05-27 13:04 51°17.616 2°50.885 3.2 26 11.5 100950 37
2010-05-27 13:05 51°17.616 2°50.885 3.5 26 11.5 100960 37
2010-05-27 13:06 51°17.616 2°50.885 3 24 11.6 100950 35
2010-05-27 13:07 51°17.617 2°50.886 3.8 22 11.6 100950 38
2010-05-27 13:08 51°17.617 2°50.886 4 26 11.6 100950 37
2010-05-27 13:09 51°17.617 2°50.886 3.8 27 11.6 100960 37
2010-05-27 13:10 51°17.617 2°50.886 3.7 26 11.6 100950 36
2010-05-27 13:11 51°17.617 2°50.885 3.6 26 11.6 100950 37
2010-05-27 13:12 51°17.617 2°50.885 3.4 23 11.6 100950 36
2010-05-27 13:13 51°17.617 2°50.884 3.2 26 11.6 100960 36
2010-05-27 13:14 51°17.617 2°50.884 3.6 30 11.6 100950 36
2010-05-27 13:15 51°17.617 2°50.884 3.4 27 11.6 100950 36
2010-05-27 13:16 51°17.618 2°50.884 3.7 23 11.6 100950 37
2010-05-27 13:17 51°17.617 2°50.884 4.3 27 11.6 100950 36
2010-05-27 13:18 51°17.617 2°50.885 3.8 28 11.5 100950 36
2010-05-27 13:19 51°17.617 2°50.885 4.2 25 11.6 100950 37
2010-05-27 13:20 51°17.617 2°50.885 3.8 28 11.6 100950 36
2010-05-27 13:21 51°17.617 2°50.885 4.1 26 11.6 100950 38
2010-05-27 13:22 51°17.617 2°50.884 4.1 32 11.6 100950 36
2010-05-27 13:23 51°17.614 2°50.878 4.1 26 11.6 100940 36
2010-05-27 13:24 51°17.614 2°50.875 4.2 27 11.6 100950 36
2010-05-27 13:25 51°17.617 2°50.877 3.8 27 11.5 100950 38
2010-05-27 13:26 51°17.607 2°50.867 3 41 11.6 100950 38
2010-05-27 13:27 51°17.576 2°50.907 3.4 57 11.6 100950 37
2010-05-27 13:28 51°17.565 2°51.068 4.7 308 11.7 100940 39
2010-05-27 13:29 51°17.544 2°51.341 5.2 304 11.7 100930 39
2010-05-27 13:30 51°17.496 2°51.661 5.1 303 11.6 100940 39
2010-05-27 13:31 51°17.421 2°51.994 4.3 303 11.7 100930 37
2010-05-27 13:32 51°17.283 2°52.261 2.8 309 11.7 100940 37
2010-05-27 13:33 51°17.103 2°52.441 2.1 302 11.7 100940 39
2010-05-27 13:34 51°16.916 2°52.596 2 304 11.7 100940 39
2010-05-27 13:35 51°16.727 2°52.738 1.1 307 11.8 100940 36
2010-05-27 13:36 51°16.536 2°52.887 1 306 11.8 100940 37
2010-05-27 13:37 51°16.345 2°53.037 2 307 11.8 100940 37
2010-05-27 13:38 51°16.154 2°53.194 1.8 307 11.9 100940 37
2010-05-27 13:39 51°15.964 2°53.35 1.4 307 11.9 100940 39
2010-05-27 13:40 51°15.774 2°53.517 2.7 309 11.9 100940 38
2010-05-27 13:41 51°15.591 2°53.706 3.2 309 12 100940 36
2010-05-27 13:42 51°15.41 2°53.899 2 309 12 100940 39
2010-05-27 13:43 51°15.237 2°54.11 3 308 12.1 100930 37
2010-05-27 13:44 51°15.069 2°54.333 3.6 307 12.1 100940 38
2010-05-27 13:45 51°14.913 2°54.579 3.2 303 12.1 100930 39
2010-05-27 13:46 51°14.746 2°54.802 4.3 309 12.2 100940 38
2010-05-27 13:47 51°14.569 2°54.999 2 303 12.2 100940 36
2010-05-27 13:48 51°14.377 2°55.148 2.2 306 12.3 100940 39
2010-05-27 13:49 51°14.253 2°55.283 1.1 282 12.3 100940 38
2010-05-27 13:50 51°14.178 2°55.384 1.1 76 12.3 100940 36
2010-05-27 13:51 51°14.079 2°55.481 -999 306 12.3 100940 37
2010-05-27 13:52 51°13.967 2°55.565 1.9 79 12.4 100940 38
2010-05-27 13:53 51°13.87 2°55.622 1.8 74 12.5 100950 37
2010-05-27 13:54 51°13.777 2°55.692 1.5 282 12.5 100940 36
2010-05-27 13:55 51°13.71 2°55.796 1.7 282 12.4 100940 36
2010-05-27 13:56 51°13.679 2°55.898 2.1 279 12.4 100940 36
2010-05-27 13:57 51°13.663 2°55.954 2.7 79 12.4 100940 38